This is the latest recevied weather packets stored in our database for station/object DL1AIE-13. If no packets are shown the sender has not sent any weather packets the latest 10 day(s).
| Time | Temp. | Humidity | Pressure | Rain* | Wind** | Luminosity | Snow |
|---|---|---|---|---|---|---|---|
| 1777589546 | 7.22° C | 66% | 1028.5 hPa | 0 mm | - | - | - |
| 1777588942 | 6.67° C | 66% | 1028.5 hPa | 0 mm | - | - | - |
| 1777588339 | 7.22° C | 67% | 1028.5 hPa | 0 mm | - | - | - |
| 1777587755 | 7.78° C | 64% | 1028.3 hPa | 0 mm | - | - | - |
| 1777587151 | 7.78° C | 63% | 1028.3 hPa | 0 mm | - | - | - |
| 1777586547 | 7.78° C | 63% | 1028.1 hPa | 0 mm | - | - | - |
| 1777585944 | 9.44° C | 55% | 1028.2 hPa | 0 mm | - | - | - |
| 1777585340 | 9.44° C | 54% | 1028.1 hPa | 0 mm | - | - | - |
| 1777584737 | 8.89° C | 57% | 1027.9 hPa | 0 mm | - | - | - |
| 1777584154 | 8.89° C | 56% | 1027.9 hPa | 0 mm | - | - | - |
| 1777583550 | 9.44° C | 55% | 1028 hPa | 0 mm | - | - | - |
| 1777582946 | 8.89° C | 56% | 1027.9 hPa | 0 mm | - | - | - |
| 1777582342 | 10° C | 53% | 1027.7 hPa | 0 mm | - | - | - |
| 1777581739 | 10° C | 52% | 1027.7 hPa | 0 mm | - | - | - |
| 1777581156 | 10.56° C | 51% | 1027.6 hPa | 0 mm | - | - | - |
| 1777580552 | 10.56° C | 50% | 1027.7 hPa | 0 mm | - | - | - |
| 1777579948 | 11.67° C | 46% | 1027.5 hPa | 0 mm | - | - | - |
| 1777579345 | 12.22° C | 43% | 1027.5 hPa | 0 mm | - | - | - |
| 1777578741 | 12.78° C | 40% | 1027.4 hPa | 0 mm | - | - | - |
| 1777578137 | 12.78° C | 39% | 1027.5 hPa | 0 mm | - | - | - |
| 1777577554 | 14.44° C | 35% | 1027.3 hPa | 0 mm | - | - | - |
| 1777576951 | 15° C | 33% | 1027.1 hPa | 0 mm | - | - | - |
| 1777576346 | 15° C | 33% | 1027.1 hPa | 0 mm | - | - | - |
| 1777575743 | 15.56° C | 32% | 1027 hPa | 0 mm | - | - | - |
| 1777575139 | 15.56° C | 32% | 1026.9 hPa | 0 mm | - | - | - |
* Rain latest hour (hover to see other rain measurements)
** Current wind speed in m/s (hover to see current wind gust speed)